Time;durP1;ratioP1;P1;durP2;ratioP2;P2;SDS_P1;SDS_P2;PMS_P1;PMS_P2;Temp;Humidity;BMP_temperature;BMP_pressure;BME280_temperature;BME280_humidity;BME280_pressure;Samples;Min_cycle;Max_cycle;Signal;HPM_P1;HPM_P2
2022/02/02 00:04:26;;;;;;;17.88;3.58;;;5.70;99.90;;;;;;5096709;28;20438;-67
2022/02/02 00:07:06;;;;;;;15.38;2.25;;;5.70;99.90;;;;;;5097246;28;20028;-67
2022/02/02 00:09:36;;;;;;;10.93;1.10;;;5.70;99.90;;;;;;5096515;28;20104;-68
2022/02/02 00:14:52;;;;;;;10.02;1.70;;;5.70;99.90;;;;;;5096341;28;20024;-67
2022/02/02 00:20:18;;;;;;;11.57;2.03;;;5.70;99.90;;;;;;5096933;28;20104;-67
2022/02/02 00:22:49;;;;;;;15.73;3.03;;;5.70;99.90;;;;;;5096302;28;20055;-67
2022/02/02 00:25:23;;;;;;;16.80;2.33;;;5.60;99.90;;;;;;5097870;28;20024;-67
2022/02/02 00:27:56;;;;;;;10.48;2.35;;;5.50;99.90;;;;;;5096936;28;20034;-67
2022/02/02 00:30:29;;;;;;;27.95;2.80;;;5.40;99.90;;;;;;5080135;28;20040;-67
2022/02/02 00:33:15;;;;;;;10.98;2.00;;;5.30;99.90;;;;;;5097418;28;20380;-67
2022/02/02 00:35:55;;;;;;;8.98;1.38;;;5.20;99.90;;;;;;5097227;28;20025;-67
2022/02/02 00:38:23;;;;;;;7.85;1.48;;;5.00;99.90;;;;;;5097023;28;20020;-67
2022/02/02 00:40:51;;;;;;;10.25;2.45;;;4.90;99.90;;;;;;5082447;28;20026;-67
2022/02/02 00:43:18;;;;;;;8.80;2.40;;;4.70;99.90;;;;;;5100944;28;20039;-67
2022/02/02 00:45:47;;;;;;;13.20;1.92;;;4.60;99.90;;;;;;5100046;28;20047;-67
2022/02/02 00:48:17;;;;;;;9.35;0.98;;;4.40;99.90;;;;;;5099870;28;20439;-67
2022/02/02 00:50:45;;;;;;;4.00;1.08;;;4.40;99.90;;;;;;5099995;28;20028;-67
2022/02/02 00:53:14;;;;;;;6.40;1.05;;;4.30;99.90;;;;;;5099697;28;20032;-67
2022/02/02 00:55:41;;;;;;;1.67;0.60;;;4.30;99.90;;;;;;5099884;28;20029;-67
2022/02/02 00:58:08;;;;;;;7.53;1.20;;;4.30;99.90;;;;;;5081767;28;20024;-67
2022/02/02 01:00:37;;;;;;;0.85;0.30;;;4.30;99.90;;;;;;5081802;28;20027;-67
2022/02/02 01:03:05;;;;;;;6.97;0.93;;;4.30;99.90;;;;;;5100272;28;20400;-67
2022/02/02 01:05:32;;;;;;;7.57;1.65;;;4.30;99.90;;;;;;5082323;28;20020;-67
2022/02/02 01:10:45;;;;;;;4.45;1.30;;;4.30;99.90;;;;;;5083092;28;20017;-67
2022/02/02 01:13:41;;;;;;;8.02;1.10;;;4.40;99.90;;;;;;5100182;28;20412;-67
2022/02/02 01:18:58;;;;;;;2.00;0.70;;;4.40;99.90;;;;;;5100410;28;20305;-67
2022/02/02 01:22:14;;;;;;;6.03;0.73;;;4.50;99.90;;;;;;5100288;28;20357;-67
2022/02/02 01:29:49;;;;;;;11.35;1.70;;;4.70;99.90;;;;;;5099512;28;20050;-67
2022/02/02 01:32:17;;;;;;;7.35;1.05;;;4.70;99.90;;;;;;5099119;28;20055;-67
2022/02/02 01:34:45;;;;;;;8.90;1.30;;;4.70;99.90;;;;;;5081031;28;20035;-67
2022/02/02 01:37:12;;;;;;;4.38;0.90;;;4.80;99.90;;;;;;5081138;28;20048;-67
2022/02/02 01:39:39;;;;;;;12.10;1.73;;;4.80;99.90;;;;;;5099558;28;20400;-67
2022/02/02 01:42:11;;;;;;;11.32;3.28;;;4.90;99.90;;;;;;5099024;28;20024;-67
2022/02/02 01:44:50;;;;;;;11.30;1.00;;;4.90;99.90;;;;;;5098721;28;20032;-67
2022/02/02 01:47:18;;;;;;;10.25;1.42;;;4.90;99.90;;;;;;5098703;28;20359;-67
2022/02/02 01:50:13;;;;;;;12.18;2.40;;;4.90;99.90;;;;;;5099251;28;20035;-67
2022/02/02 01:53:05;;;;;;;14.85;1.63;;;4.90;99.90;;;;;;5098608;28;20097;-67
2022/02/02 01:55:40;;;;;;;12.90;2.75;;;5.00;99.90;;;;;;5085398;28;20077;-67
2022/02/02 02:00:54;;;;;;;15.98;1.38;;;5.10;99.90;;;;;;5099890;28;20311;-67
2022/02/02 02:03:22;;;;;;;14.45;3.08;;;5.10;99.90;;;;;;5099364;28;20024;-67
2022/02/02 02:05:50;;;;;;;18.58;3.50;;;5.10;99.90;;;;;;5099992;28;20400;-67
2022/02/02 02:08:17;;;;;;;20.10;1.88;;;5.10;99.90;;;;;;5099275;28;20028;-67
2022/02/02 02:10:45;;;;;;;12.02;2.67;;;5.10;99.90;;;;;;5098412;28;20085;-67
2022/02/02 02:13:20;;;;;;;19.30;2.22;;;5.10;99.90;;;;;;5098187;28;20032;-67
2022/02/02 02:15:49;;;;;;;17.10;3.28;;;5.10;99.90;;;;;;5098120;28;20028;-67
2022/02/02 02:18:17;;;;;;;11.00;1.67;;;5.10;99.90;;;;;;5098764;28;20099;-67
2022/02/02 02:20:45;;;;;;;14.07;2.75;;;5.10;99.90;;;;;;5098041;28;20016;-67
2022/02/02 02:23:12;;;;;;;21.70;2.53;;;5.20;99.90;;;;;;5098619;28;20346;-67
2022/02/02 02:25:42;;;;;;;14.38;2.22;;;5.30;99.90;;;;;;5080039;28;20023;-67
2022/02/02 02:30:57;;;;;;;9.43;2.10;;;5.30;99.90;;;;;;5081360;28;20328;-67
2022/02/02 02:34:20;;;;;;;8.43;1.40;;;5.10;99.90;;;;;;5082460;28;20439;-67
2022/02/02 02:36:41;;;;;;;12.98;2.28;;;4.80;99.90;;;;;;5084489;28;20115;-67
2022/02/02 02:39:34;;;;;;;7.07;1.13;;;4.60;99.90;;;;;;5098690;28;20024;-67
2022/02/02 02:55:59;;;;;;;5.57;1.25;;;3.80;99.90;;;;;;5098056;28;20063;-67
2022/02/02 03:53:56;;;;;;;27.45;3.38;;;4.80;99.90;;;;;;5096625;28;20032;-67
2022/02/02 03:58:24;;;;;;;12.00;2.40;;;4.80;99.90;;;;;;5097894;28;20046;-67
2022/02/02 04:01:09;;;;;;;10.07;2.67;;;4.80;99.90;;;;;;5097458;28;20024;-67
2022/02/02 04:06:25;;;;;;;21.15;2.70;;;4.90;99.90;;;;;;5097893;28;20073;-67
2022/02/02 04:08:53;;;;;;;15.88;2.60;;;5.00;99.90;;;;;;5097711;28;20077;-67
2022/02/02 04:11:39;;;;;;;14.77;2.53;;;5.10;99.90;;;;;;5097898;28;20024;-67
2022/02/02 04:58:04;;;;;;;9.23;1.73;;;5.00;99.90;;;;;;5100754;28;20335;-67
2022/02/02 05:01:10;;;;;;;6.70;1.70;;;5.00;99.90;;;;;;5100187;28;20032;-67
2022/02/02 05:06:20;;;;;;;13.77;1.75;;;5.10;99.90;;;;;;5099829;28;20080;-67
2022/02/02 05:16:56;;;;;;;21.40;4.73;;;5.00;99.90;;;;;;5099934;28;20066;-67
2022/02/02 05:25:57;;;;;;;13.02;1.95;;;5.00;99.90;;;;;;5100635;28;20036;-67
2022/02/02 05:44:31;;;;;;;19.15;3.58;;;4.70;99.90;;;;;;5079116;28;20031;-67
2022/02/02 05:52:35;;;;;;;15.00;1.58;;;4.50;99.90;;;;;;5078835;28;20091;-67
2022/02/02 05:55:03;;;;;;;8.70;1.80;;;4.40;99.90;;;;;;5078158;28;20035;-67
2022/02/02 05:57:33;;;;;;;12.70;2.72;;;4.20;99.90;;;;;;5078377;28;20405;-67
2022/02/02 06:00:00;;;;;;;15.88;4.13;;;4.20;99.90;;;;;;5044058;28;20028;-67
2022/02/02 06:02:33;;;;;;;8.40;2.42;;;4.10;99.90;;;;;;5078799;28;20021;-67
2022/02/02 06:05:07;;;;;;;7.57;1.65;;;4.20;99.90;;;;;;5078525;28;20056;-67
2022/02/02 06:07:37;;;;;;;16.10;2.28;;;4.20;99.90;;;;;;5079214;28;20317;-67
2022/02/02 06:10:08;;;;;;;13.07;2.25;;;4.30;99.90;;;;;;5079527;28;20042;-67
2022/02/02 06:12:35;;;;;;;12.68;2.05;;;4.40;99.90;;;;;;5079794;28;20029;-67
2022/02/02 06:15:11;;;;;;;9.30;1.55;;;4.40;99.90;;;;;;5079232;28;20362;-67
2022/02/02 06:17:48;;;;;;;19.98;4.70;;;4.40;99.90;;;;;;5078962;28;20032;-67
2022/02/02 06:20:18;;;;;;;14.23;2.33;;;4.50;99.90;;;;;;5079464;28;20028;-67
2022/02/02 06:23:14;;;;;;;12.32;2.30;;;4.50;99.90;;;;;;5061018;28;20028;-67
2022/02/02 06:25:47;;;;;;;21.60;3.17;;;4.50;99.90;;;;;;5078604;28;20404;-67
2022/02/02 06:28:25;;;;;;;18.08;2.78;;;4.50;99.90;;;;;;5077656;28;20025;-67
2022/02/02 06:30:58;;;;;;;9.13;2.03;;;4.50;99.90;;;;;;5080948;28;20040;-67
2022/02/02 06:33:37;;;;;;;20.20;3.22;;;4.50;99.90;;;;;;5097850;28;20336;-67
2022/02/02 06:36:07;;;;;;;23.73;3.50;;;4.50;99.90;;;;;;5098687;28;20300;-67
2022/02/02 06:38:34;;;;;;;25.13;3.10;;;4.50;99.90;;;;;;5097153;28;20024;-67
2022/02/02 06:41:02;;;;;;;25.58;3.72;;;4.50;99.90;;;;;;5097661;28;20024;-67
2022/02/02 06:43:29;;;;;;;11.35;2.17;;;4.60;99.90;;;;;;5079658;28;20430;-67
2022/02/02 06:45:59;;;;;;;12.48;2.00;;;4.60;99.90;;;;;;5098482;28;20028;-67
2022/02/02 06:48:32;;;;;;;22.35;3.13;;;4.70;99.90;;;;;;5098528;28;20024;-67
2022/02/02 06:51:11;;;;;;;12.25;2.80;;;4.70;99.90;;;;;;5081475;28;20028;-67
2022/02/02 06:54:08;;;;;;;17.98;2.20;;;4.70;99.90;;;;;;5098938;28;20020;-67
2022/02/02 07:02:26;;;;;;;21.27;5.10;;;4.80;99.90;;;;;;5098455;28;20018;-67
2022/02/02 07:05:18;;;;;;;15.60;2.03;;;4.70;99.90;;;;;;5099077;28;20024;-67
2022/02/02 07:08:03;;;;;;;13.35;3.85;;;4.70;99.90;;;;;;5097841;28;20024;-67
2022/02/02 07:11:13;;;;;;;16.55;2.30;;;4.70;99.90;;;;;;5098043;28;20063;-67
2022/02/02 07:16:20;;;;;;;17.75;3.03;;;4.70;99.90;;;;;;5097255;28;20020;-67
2022/02/02 07:35:07;;;;;;;25.77;2.72;;;4.70;99.90;;;;;;5077891;28;20036;-67
2022/02/02 07:37:47;;;;;;;18.40;2.85;;;4.80;99.90;;;;;;5077452;28;20021;-67
2022/02/02 07:40:16;;;;;;;17.65;2.17;;;4.80;99.90;;;;;;5078073;28;20078;-67
2022/02/02 07:42:49;;;;;;;11.02;1.92;;;4.80;99.90;;;;;;5077426;28;20029;-67
2022/02/02 07:45:20;;;;;;;13.55;2.70;;;4.80;99.90;;;;;;5076439;28;20025;-67
2022/02/02 07:47:58;;;;;;;14.18;2.55;;;4.80;99.90;;;;;;5077698;28;20082;-67
2022/02/02 07:50:29;;;;;;;17.75;3.17;;;4.80;99.90;;;;;;5076756;28;20029;-67
2022/02/02 07:53:04;;;;;;;14.70;3.42;;;4.80;99.90;;;;;;5076362;28;20097;-67
2022/02/02 07:55:34;;;;;;;16.90;2.88;;;4.90;99.90;;;;;;5076423;28;20028;-67
2022/02/02 07:58:03;;;;;;;22.17;4.18;;;4.90;99.90;;;;;;5076373;28;20413;-67
2022/02/02 08:00:32;;;;;;;9.23;1.98;;;5.00;99.90;;;;;;5076434;28;20306;-67
2022/02/02 08:03:07;;;;;;;19.27;2.63;;;5.00;99.90;;;;;;5076271;28;20024;-67
2022/02/02 08:05:44;;;;;;;8.18;2.63;;;5.10;99.90;;;;;;5076324;28;20445;-67
2022/02/02 08:10:49;;;;;;;27.35;4.22;;;5.20;99.90;;;;;;5076416;28;20013;-65
2022/02/02 08:13:22;;;;;;;14.85;3.90;;;5.20;99.90;;;;;;5076572;28;20424;-67
2022/02/02 08:16:02;;;;;;;12.45;2.42;;;5.20;99.90;;;;;;5077528;28;20028;-67
2022/02/02 08:18:31;;;;;;;11.88;2.53;;;5.20;99.90;;;;;;5077502;28;20311;-67
2022/02/02 08:20:58;;;;;;;16.75;2.78;;;5.20;99.90;;;;;;5077096;28;20025;-67
2022/02/02 08:23:26;;;;;;;18.83;4.18;;;5.20;99.90;;;;;;5077688;28;20032;-69
2022/02/02 08:25:56;;;;;;;23.80;2.78;;;5.20;99.90;;;;;;5077058;28;20099;-69
2022/02/02 08:28:25;;;;;;;22.85;2.30;;;5.30;99.90;;;;;;5076912;28;20336;-69
2022/02/02 08:30:53;;;;;;;16.30;3.83;;;5.30;99.90;;;;;;5078789;28;20087;-69
2022/02/02 08:33:29;;;;;;;23.70;2.60;;;5.30;99.90;;;;;;5061994;28;20027;-69
2022/02/02 08:35:58;;;;;;;;;;;5.30;99.90;;;;;;5097346;28;20024;-69
2022/02/02 08:41:01;;;;;;;12.93;3.13;;;5.40;99.90;;;;;;5096217;28;20095;-69
2022/02/02 08:43:37;;;;;;;20.48;2.25;;;5.40;99.90;;;;;;5096220;28;20423;-69
2022/02/02 08:46:10;;;;;;;13.35;2.25;;;5.40;99.90;;;;;;5080651;28;20337;-69
2022/02/02 08:48:42;;;;;;;18.95;2.63;;;5.50;99.90;;;;;;5095950;28;20358;-69
2022/02/02 08:51:14;;;;;;;14.05;2.15;;;5.50;99.90;;;;;;5096564;28;20024;-69
2022/02/02 08:58:58;;;;;;;11.85;2.55;;;5.50;99.90;;;;;;5097035;28;20038;-69
2022/02/02 09:01:29;;;;;;;19.92;3.50;;;5.60;99.90;;;;;;5098927;28;20021;-69
2022/02/02 09:06:44;;;;;;;14.52;2.10;;;5.60;99.90;;;;;;5100853;28;20112;-68
2022/02/02 09:09:21;;;;;;;9.75;1.42;;;5.60;99.90;;;;;;5101107;28;20020;-67
2022/02/02 09:25:37;;;;;;;28.48;3.72;;;5.80;99.90;;;;;;5099698;28;20030;-73
2022/02/02 09:35:59;;;;;;;15.05;2.53;;;5.90;99.90;;;;;;5099068;28;19904;-69
2022/02/02 09:38:26;;;;;;;13.63;2.53;;;5.90;99.90;;;;;;5082149;28;20024;-69
2022/02/02 09:41:20;;;;;;;23.27;3.83;;;6.00;99.90;;;;;;5081911;28;20078;-69
2022/02/02 09:43:48;;;;;;;16.30;3.67;;;6.00;99.90;;;;;;5099556;28;20029;-69
2022/02/02 09:46:21;;;;;;;27.73;3.40;;;6.10;99.90;;;;;;5100157;28;20035;-69
2022/02/02 09:48:54;;;;;;;25.30;4.28;;;6.10;99.90;;;;;;5082608;28;20446;-69
2022/02/02 09:51:35;;;;;;;14.05;2.65;;;6.20;99.90;;;;;;5099737;28;20035;-69
2022/02/02 09:54:22;;;;;;;22.80;4.50;;;6.20;99.90;;;;;;5100475;28;20020;-69
2022/02/02 09:59:34;;;;;;;20.15;4.90;;;6.20;99.90;;;;;;5098736;28;20020;-69
2022/02/02 10:03:00;;;;;;;15.50;2.47;;;6.20;99.90;;;;;;5099127;28;20020;-69
2022/02/02 10:08:37;;;;;;;15.55;2.58;;;6.10;99.90;;;;;;5098482;28;20024;-68
2022/02/02 10:13:20;;;;;;;13.25;2.50;;;6.10;99.90;;;;;;5097259;28;20035;-68
2022/02/02 10:15:49;;;;;;;17.48;2.33;;;6.20;99.90;;;;;;5098286;28;20030;-68
2022/02/02 10:18:22;;;;;;;13.50;2.97;;;6.30;99.90;;;;;;5098288;28;20028;-68
2022/02/02 10:20:52;;;;;;;13.95;2.67;;;6.40;99.90;;;;;;5098617;28;20020;-68
2022/02/02 10:23:25;;;;;;;12.85;2.13;;;6.40;99.90;;;;;;5099152;28;20020;-70
2022/02/02 10:25:58;;;;;;;16.15;2.42;;;6.40;99.90;;;;;;5099316;28;20028;-67
2022/02/02 10:28:32;;;;;;;11.63;2.50;;;6.40;99.90;;;;;;5098938;28;20028;-68
2022/02/02 10:31:06;;;;;;;19.00;2.75;;;6.40;99.90;;;;;;5099041;28;20119;-68
2022/02/02 10:33:35;;;;;;;9.27;1.85;;;6.30;99.90;;;;;;5098897;28;20476;-68
2022/02/02 10:36:13;;;;;;;14.38;2.53;;;6.10;99.90;;;;;;5098901;28;20301;-68
2022/02/02 10:38:50;;;;;;;12.07;1.70;;;5.80;99.90;;;;;;5098680;28;20420;-67
2022/02/02 10:41:31;;;;;;;18.02;3.13;;;5.60;99.90;;;;;;5098251;28;20024;-67
2022/02/02 10:44:13;;;;;;;17.33;2.00;;;5.40;99.90;;;;;;5097936;28;20432;-67
2022/02/02 10:46:57;;;;;;;23.40;1.98;;;5.20;99.90;;;;;;5097683;28;20031;-67
2022/02/02 10:49:35;;;;;;;12.48;2.80;;;5.20;99.90;;;;;;5097525;28;20028;-68
2022/02/02 10:52:13;;;;;;;11.77;2.92;;;5.20;99.90;;;;;;5098197;28;20426;-68
2022/02/02 10:57:30;;;;;;;12.95;2.63;;;5.30;99.90;;;;;;5097516;28;20111;-67
2022/02/02 11:00:09;;;;;;;18.33;1.70;;;5.40;99.90;;;;;;5097456;28;20029;-68
2022/02/02 11:08:10;;;;;;;12.05;3.08;;;5.70;99.90;;;;;;5083324;28;20128;-68
2022/02/02 11:10:37;;;;;;;11.60;1.35;;;5.90;99.90;;;;;;5098210;28;20028;-68
2022/02/02 11:13:12;;;;;;;17.70;2.17;;;6.10;99.90;;;;;;5098719;28;20027;-68
2022/02/02 11:15:50;;;;;;;9.52;3.10;;;6.20;99.90;;;;;;5097936;28;20439;-68
2022/02/02 11:18:23;;;;;;;17.33;4.57;;;6.50;99.90;;;;;;5080143;28;20028;-68
2022/02/02 11:20:52;;;;;;;13.27;2.58;;;6.60;99.90;;;;;;5098719;28;20016;-68
2022/02/02 11:23:22;;;;;;;24.00;4.10;;;6.80;99.90;;;;;;5097352;28;20024;-68
2022/02/02 11:25:55;;;;;;;33.17;5.35;;;6.90;99.90;;;;;;5097146;28;20020;-68
2022/02/02 11:28:33;;;;;;;29.90;4.32;;;7.00;99.90;;;;;;5096994;28;20027;-68
2022/02/02 11:31:09;;;;;;;25.95;3.85;;;7.10;99.90;;;;;;5075412;28;20040;-68
2022/02/02 11:33:44;;;;;;;15.35;2.38;;;7.10;99.90;;;;;;5077201;28;20028;-68
2022/02/02 11:36:36;;;;;;;19.48;2.83;;;7.10;99.90;;;;;;5075735;28;20028;-68
2022/02/02 11:39:31;;;;;;;13.50;2.67;;;7.00;99.90;;;;;;5076510;28;20020;-68
2022/02/02 11:42:11;;;;;;;12.75;2.30;;;7.00;99.90;;;;;;5076798;28;20085;-67
2022/02/02 11:45:04;;;;;;;18.20;2.63;;;6.90;99.90;;;;;;5076874;28;20023;-67
2022/02/02 11:47:48;;;;;;;14.23;3.25;;;6.90;99.90;;;;;;5077390;28;20332;-66
2022/02/02 11:50:37;;;;;;;14.60;2.63;;;6.80;99.90;;;;;;5077790;28;20029;-67
2022/02/02 11:53:04;;;;;;;12.50;3.20;;;6.60;99.90;;;;;;5077370;28;20082;-67
2022/02/02 11:55:32;;;;;;;17.27;1.98;;;6.40;99.90;;;;;;5077901;28;20028;-68
2022/02/02 11:58:08;;;;;;;7.35;1.70;;;6.20;99.90;;;;;;5077271;28;20025;-68
2022/02/02 12:00:51;;;;;;;;;;;6.00;99.90;;;;;;5077697;28;20028;-68
2022/02/02 12:03:57;;;;;;;10.30;2.33;;;5.90;99.90;;;;;;5077592;28;19911;-68
2022/02/02 12:06:56;;;;;;;3.58;0.80;;;5.70;99.90;;;;;;5077225;28;20021;-68
2022/02/02 12:09:54;;;;;;;7.20;1.17;;;5.50;99.90;;;;;;5076248;28;20043;-68
2022/02/02 12:49:00;;;;;;;8.95;1.40;;;4.10;99.90;;;;;;5101093;28;20023;-68
2022/02/02 12:57:05;;;;;;;15.75;2.80;;;4.30;99.90;;;;;;5101477;28;20047;-68
2022/02/02 13:02:16;;;;;;;9.43;1.50;;;4.60;99.90;;;;;;5100041;28;20412;-68
2022/02/02 13:04:46;;;;;;;13.52;1.08;;;4.90;99.90;;;;;;5099813;28;20107;-68
2022/02/02 13:07:16;;;;;;;11.15;1.52;;;5.10;99.90;;;;;;5099733;28;20028;-68
2022/02/02 13:09:50;;;;;;;6.38;0.95;;;5.10;99.90;;;;;;5081704;28;20111;-68
2022/02/02 13:12:53;;;;;;;9.65;1.45;;;5.20;99.90;;;;;;5100522;28;20024;-68
2022/02/02 13:20:47;;;;;;;10.57;1.42;;;5.10;99.90;;;;;;5100609;28;20420;-68
2022/02/02 13:23:29;;;;;;;8.32;1.17;;;5.00;99.90;;;;;;5100239;28;20038;-68
2022/02/02 13:26:05;;;;;;;12.82;1.65;;;4.90;99.90;;;;;;5100252;28;20028;-68
2022/02/02 13:28:46;;;;;;;9.18;2.88;;;4.90;99.90;;;;;;5100092;28;20028;-68
2022/02/02 13:37:06;;;;;;;9.40;2.05;;;5.10;99.90;;;;;;5099192;28;20085;-68
2022/02/02 13:48:01;;;;;;;14.25;1.95;;;5.20;99.90;;;;;;5098799;28;20032;-68
2022/02/02 13:53:48;;;;;;;;;;;5.20;99.90;;;;;;5099939;28;19908;-68
2022/02/02 13:56:33;;;;;;;13.63;1.80;;;5.20;99.90;;;;;;5099514;28;19974;-68
2022/02/02 14:01:57;;;;;;;11.98;2.42;;;5.20;99.90;;;;;;5099958;28;20035;-68
2022/02/02 14:09:37;;;;;;;10.75;1.83;;;5.30;99.90;;;;;;5099460;28;20020;-69
2022/02/02 14:31:05;;;;;;;8.35;2.50;;;5.90;99.90;;;;;;5098509;28;20088;-69
2022/02/02 14:31:45;;;;;;;12.25;1.92;;;6.10;99.90;;;;;;5098017;28;20051;-69
2022/02/02 14:34:13;;;;;;;11.82;1.60;;;6.20;99.90;;;;;;5097664;28;20036;-72
2022/02/02 14:36:41;;;;;;;8.25;2.22;;;6.40;99.90;;;;;;5098622;28;20028;-66
2022/02/02 14:39:38;;;;;;;9.18;1.63;;;6.50;99.90;;;;;;5098753;28;20370;-66
2022/02/02 14:42:15;;;;;;;13.52;1.55;;;6.50;99.90;;;;;;5085387;28;20107;-66
2022/02/02 14:44:44;;;;;;;13.15;2.17;;;6.50;99.90;;;;;;5098405;28;20038;-66
2022/02/02 14:47:17;;;;;;;13.30;2.05;;;6.50;99.90;;;;;;5098843;28;20077;-66
2022/02/02 14:52:32;;;;;;;16.27;2.03;;;6.50;99.90;;;;;;5098639;28;20428;-66
2022/02/02 15:25:38;;;;;;;18.42;2.60;;;6.70;99.90;;;;;;5098314;28;20485;-66
2022/02/02 15:28:02;;;;;;;8.02;1.50;;;6.70;99.90;;;;;;5097206;28;20335;-66
2022/02/02 15:33:21;;;;;;;5.32;1.05;;;6.60;99.90;;;;;;5097733;28;20340;-66
2022/02/02 15:36:08;;;;;;;7.43;1.45;;;6.60;99.90;;;;;;5097741;28;20048;-66
2022/02/02 15:38:38;;;;;;;4.82;1.20;;;6.50;99.90;;;;;;5097280;28;20024;-66
2022/02/02 15:41:14;;;;;;;6.55;1.63;;;6.50;99.90;;;;;;5097281;28;20069;-66
2022/02/02 15:44:58;;;;;;;11.70;1.63;;;6.50;99.90;;;;;;5097598;28;20019;-67
2022/02/02 15:55:38;;;;;;;9.63;1.90;;;6.40;99.90;;;;;;5096701;28;20073;-68
2022/02/02 15:58:11;;;;;;;10.32;1.70;;;6.40;99.90;;;;;;5096387;28;20024;-71
2022/02/02 16:03:36;;;;;;;12.73;2.67;;;6.30;99.90;;;;;;5097752;28;20058;-69
2022/02/02 16:06:14;;;;;;;7.82;1.63;;;6.30;99.90;;;;;;5097251;28;20027;-74
2022/02/02 16:08:44;;;;;;;9.73;1.13;;;6.30;99.90;;;;;;5098292;28;20016;-70
2022/02/02 16:13:53;;;;;;;9.65;1.33;;;6.10;99.90;;;;;;5101745;28;20054;-67
2022/02/02 16:18:58;;;;;;;13.68;1.60;;;6.00;99.90;;;;;;5101608;28;20032;-67
2022/02/02 16:36:11;;;;;;;28.10;2.40;;;5.50;99.90;;;;;;5100635;28;20050;-67
2022/02/02 16:38:17;;;;;;;13.17;2.67;;;5.40;99.90;;;;;;5074471;28;20079;-68
2022/02/02 16:40:49;;;;;;;18.45;1.90;;;5.30;99.90;;;;;;5100361;28;20412;-67
2022/02/02 16:43:19;;;;;;;17.65;5.22;;;5.20;99.90;;;;;;5100458;28;20035;-68
2022/02/02 16:45:53;;;;;;;18.10;5.55;;;5.10;99.90;;;;;;5101430;28;20513;-68
2022/02/02 16:48:22;;;;;;;13.60;2.70;;;5.00;99.90;;;;;;5100962;28;20074;-67
2022/02/02 16:50:56;;;;;;;18.23;3.67;;;4.90;99.90;;;;;;5101339;28;20059;-67
2022/02/02 16:53:35;;;;;;;9.85;2.22;;;4.80;99.90;;;;;;5101120;28;20028;-68
2022/02/02 16:56:11;;;;;;;16.08;2.58;;;4.60;99.90;;;;;;5100644;28;20101;-67
2022/02/02 17:31:34;;;;;;;66.10;22.02;;;2.90;99.90;;;;;;5100610;28;20039;-68
2022/02/02 17:34:15;;;;;;;38.13;12.82;;;2.80;99.90;;;;;;5099879;28;20031;-67
2022/02/02 17:36:52;;;;;;;30.52;7.20;;;2.70;99.90;;;;;;5100011;28;20024;-67
2022/02/02 17:39:30;;;;;;;31.90;11.05;;;2.60;99.90;;;;;;5099869;28;20024;-67
2022/02/02 17:42:28;;;;;;;37.25;11.55;;;2.60;99.90;;;;;;5100154;28;20016;-68
2022/02/02 18:00:02;;;;;;;38.60;12.73;;;2.10;99.90;;;;;;5098563;28;20053;-67
2022/02/02 18:20:53;;;;;;;16.70;4.75;;;1.50;99.90;;;;;;5060924;28;20050;-67
2022/02/02 18:26:11;;;;;;;22.10;6.88;;;1.40;99.90;;;;;;5099134;28;20031;-67
2022/02/02 18:28:48;;;;;;;;;;;1.40;99.90;;;;;;5083912;28;20038;-67
2022/02/02 18:31:44;;;;;;;14.05;4.40;;;1.30;99.90;;;;;;5098283;28;20314;-67
2022/02/02 18:36:52;;;;;;;23.70;3.08;;;1.20;99.90;;;;;;5098030;28;20019;-67
2022/02/02 18:47:41;;;;;;;18.95;4.82;;;1.00;99.90;;;;;;5098083;28;20047;-67
2022/02/02 18:50:21;;;;;;;8.38;2.25;;;1.00;99.90;;;;;;5097639;28;20408;-67
2022/02/02 18:58:13;;;;;;;;;;;0.90;99.90;;;;;;5099258;28;20024;-67
2022/02/02 19:00:58;;;;;;;8.73;3.00;;;0.80;99.90;;;;;;5099175;28;19904;-67
2022/02/02 19:31:40;;;;;;;20.70;4.38;;;0.60;99.90;;;;;;5065292;28;20032;-68
2022/02/02 19:40:02;;;;;;;14.57;4.10;;;0.50;99.90;;;;;;5081013;28;20396;-67
2022/02/02 19:56:42;;;;;;;14.77;2.73;;;0.30;99.90;;;;;;5097007;28;20102;-67
2022/02/02 20:12:24;;;;;;;12.95;4.65;;;0.10;99.90;;;;;;5096435;28;20115;-67
2022/02/02 20:14:52;;;;;;;12.07;2.78;;;0.00;99.90;;;;;;5096218;28;20020;-70
2022/02/02 20:17:23;;;;;;;11.13;2.42;;;0.00;99.90;;;;;;5097432;28;20020;-67
2022/02/02 20:20:10;;;;;;;13.15;3.03;;;0.00;99.90;;;;;;5097128;28;20024;-68
2022/02/02 20:22:39;;;;;;;8.35;2.30;;;0.00;99.90;;;;;;5097212;28;20093;-67
2022/02/02 20:25:08;;;;;;;7.53;2.33;;;-0.10;99.90;;;;;;5097506;28;20020;-67
2022/02/02 20:27:36;;;;;;;6.47;2.17;;;-0.10;99.90;;;;;;5097382;28;20054;-67
2022/02/02 20:30:11;;;;;;;10.52;2.53;;;-0.10;99.90;;;;;;5079576;28;20374;-67
2022/02/02 20:32:39;;;;;;;15.57;2.50;;;-0.20;99.90;;;;;;5097148;28;20047;-67
2022/02/02 20:35:08;;;;;;;16.67;2.92;;;-0.20;99.90;;;;;;5097821;28;20289;-67
2022/02/02 20:37:36;;;;;;;15.95;6.72;;;-0.20;99.90;;;;;;5096510;28;20020;-67
2022/02/02 20:40:07;;;;;;;8.75;2.67;;;-0.30;99.90;;;;;;5094392;28;20028;-67
2022/02/02 20:42:42;;;;;;;12.40;2.85;;;-0.30;99.90;;;;;;5097051;28;20012;-67
2022/02/02 21:02:48;;;;;;;12.50;2.10;;;-0.40;99.90;;;;;;5086194;28;20487;-67
2022/02/02 21:09:53;;;;;;;6.85;2.40;;;-0.50;99.90;;;;;;5100927;28;20029;-67
2022/02/02 21:15:13;;;;;;;16.73;6.28;;;-0.50;99.90;;;;;;5085379;28;20094;-67
2022/02/02 21:17:41;;;;;;;19.88;3.70;;;-0.50;99.90;;;;;;5100200;28;20032;-67
2022/02/02 21:20:20;;;;;;;12.75;3.63;;;-0.50;99.90;;;;;;5099387;28;20418;-67
2022/02/02 21:22:57;;;;;;;13.07;3.83;;;-0.50;99.90;;;;;;5099257;28;20024;-67
2022/02/02 21:28:12;;;;;;;13.48;3.08;;;-0.50;99.90;;;;;;5099653;28;20081;-67
2022/02/02 21:30:41;;;;;;;10.15;3.70;;;-0.50;99.90;;;;;;5081432;28;20089;-67
2022/02/02 21:33:14;;;;;;;6.38;2.33;;;-0.50;99.90;;;;;;5099053;28;20048;-67
2022/02/02 21:35:44;;;;;;;26.63;3.47;;;-0.50;99.90;;;;;;5098940;28;20056;-67
2022/02/02 21:38:27;;;;;;;15.90;4.55;;;-0.50;99.90;;;;;;5099018;28;20042;-67
2022/02/02 21:40:58;;;;;;;11.00;3.35;;;-0.50;99.90;;;;;;5083986;28;20069;-67
2022/02/02 21:43:28;;;;;;;9.25;3.33;;;-0.50;99.90;;;;;;5099802;28;20099;-67
2022/02/02 21:45:56;;;;;;;11.65;3.80;;;-0.60;99.90;;;;;;5099953;28;20427;-67
2022/02/02 21:48:28;;;;;;;14.38;2.90;;;-0.60;99.90;;;;;;5099774;28;20036;-67
2022/02/02 21:51:02;;;;;;;8.38;3.25;;;-0.60;99.90;;;;;;5100311;28;20024;-67
2022/02/02 21:53:30;;;;;;;18.85;3.35;;;-0.60;99.90;;;;;;5099920;28;20032;-67
2022/02/02 21:55:57;;;;;;;13.27;3.63;;;-0.60;99.90;;;;;;5081734;28;20032;-67
2022/02/02 21:58:25;;;;;;;9.10;2.55;;;-0.60;99.90;;;;;;5099653;28;20020;-67
2022/02/02 22:00:52;;;;;;;11.35;3.53;;;-0.50;99.90;;;;;;5099385;28;20028;-67
2022/02/02 22:03:20;;;;;;;12.30;2.65;;;-0.50;99.90;;;;;;5098904;28;20022;-67
2022/02/02 22:05:47;;;;;;;13.57;2.63;;;-0.50;99.90;;;;;;5080658;28;20058;-67
2022/02/02 22:08:14;;;;;;;10.23;2.17;;;-0.50;99.90;;;;;;5063875;28;20499;-67
2022/02/02 22:10:43;;;;;;;19.02;4.63;;;-0.50;99.90;;;;;;5080735;28;20024;-67
2022/02/02 22:13:11;;;;;;;59.50;15.85;;;-0.40;99.90;;;;;;5098946;28;20025;-67
2022/02/02 22:15:42;;;;;;;40.80;11.45;;;-0.40;99.90;;;;;;5080401;28;20028;-67
2022/02/02 22:18:10;;;;;;;13.75;5.15;;;-0.40;99.90;;;;;;5098234;28;20024;-67
2022/02/02 22:20:38;;;;;;;15.07;2.60;;;-0.40;99.90;;;;;;5098426;28;20031;-67
2022/02/02 22:23:05;;;;;;;6.63;2.50;;;-0.40;99.90;;;;;;5098910;28;20016;-68
2022/02/02 22:25:32;;;;;;;8.98;2.85;;;-0.40;99.90;;;;;;5099536;28;20430;-67
2022/02/02 22:28:00;;;;;;;12.35;2.78;;;-0.40;99.90;;;;;;5081549;28;20340;-67
2022/02/02 22:30:27;;;;;;;6.97;2.53;;;-0.40;99.90;;;;;;5099585;28;20024;-67
2022/02/02 22:32:55;;;;;;;10.43;2.28;;;-0.30;99.90;;;;;;5098932;28;20076;-67
2022/02/02 22:35:22;;;;;;;22.75;3.42;;;-0.30;99.90;;;;;;5099098;28;20111;-67
2022/02/02 22:37:49;;;;;;;13.35;2.58;;;-0.30;99.90;;;;;;5080919;28;20416;-67
2022/02/02 22:40:23;;;;;;;11.85;2.70;;;-0.30;99.90;;;;;;5098744;28;20024;-67
2022/02/02 22:42:52;;;;;;;14.95;3.50;;;-0.20;99.90;;;;;;5098728;28;20103;-67
2022/02/02 22:45:20;;;;;;;13.73;2.40;;;-0.30;99.90;;;;;;5097911;28;20058;-67
2022/02/02 22:47:49;;;;;;;8.23;2.22;;;-0.20;99.90;;;;;;5097820;28;20028;-67
2022/02/02 22:50:19;;;;;;;14.50;2.55;;;-0.20;99.90;;;;;;5097762;28;20032;-67
2022/02/02 22:52:51;;;;;;;15.52;3.80;;;-0.20;99.90;;;;;;5098553;28;20099;-67
2022/02/02 22:55:19;;;;;;;9.48;2.80;;;-0.20;99.90;;;;;;5097414;28;20032;-67
2022/02/02 22:57:50;;;;;;;14.55;3.03;;;-0.20;99.90;;;;;;5079998;28;20024;-67
2022/02/02 23:00:34;;;;;;;20.65;3.08;;;-0.20;99.90;;;;;;5097625;28;20094;-67
2022/02/02 23:03:05;;;;;;;11.75;3.17;;;-0.20;99.90;;;;;;5097831;28;20095;-67
2022/02/02 23:05:39;;;;;;;16.23;3.53;;;-0.20;99.90;;;;;;5097698;28;20031;-67
2022/02/02 23:08:10;;;;;;;14.70;2.83;;;-0.10;99.90;;;;;;5098327;28;20161;-67
2022/02/02 23:10:39;;;;;;;13.38;3.42;;;-0.20;99.90;;;;;;5080921;28;20028;-67
2022/02/02 23:13:07;;;;;;;18.50;4.07;;;-0.20;99.90;;;;;;5080609;28;20027;-67
2022/02/02 23:15:41;;;;;;;11.60;3.30;;;-0.20;99.90;;;;;;5098250;28;20034;-67